createdAt,value
2019-05-20T00:00:32.308Z,6.00
2019-05-20T00:02:58.301Z,6.23
2019-05-20T00:05:24.519Z,5.70
2019-05-20T00:07:50.878Z,6.53
2019-05-20T00:10:17.026Z,6.20
2019-05-20T00:12:43.047Z,5.87
2019-05-20T00:15:09.373Z,5.80
2019-05-20T00:17:35.382Z,6.30
2019-05-20T00:20:04.763Z,6.07
2019-05-20T00:22:30.945Z,6.37
2019-05-20T00:24:56.898Z,6.37
2019-05-20T00:27:22.866Z,6.13
2019-05-20T00:29:49.010Z,6.23
2019-05-20T00:32:15.096Z,6.47
2019-05-20T00:34:41.136Z,6.30
2019-05-20T00:37:07.388Z,6.50
2019-05-20T00:39:33.363Z,7.00
2019-05-20T00:41:59.320Z,6.50
2019-05-20T00:44:25.357Z,6.07
2019-05-20T00:46:51.599Z,6.20
2019-05-20T00:49:17.671Z,6.40
2019-05-20T00:51:44.604Z,6.23
2019-05-20T00:54:11.080Z,6.60
2019-05-20T00:56:37.480Z,6.23
2019-05-20T00:59:04.217Z,6.43
2019-05-20T01:01:30.189Z,6.80
2019-05-20T01:03:56.123Z,6.93
2019-05-20T01:06:22.222Z,6.27
2019-05-20T01:08:48.311Z,6.00
2019-05-20T01:11:14.324Z,6.97
2019-05-20T01:13:40.266Z,6.47
2019-05-20T01:16:06.646Z,6.40
2019-05-20T01:18:32.601Z,6.10
2019-05-20T01:20:59.010Z,6.40
2019-05-20T01:23:25.027Z,6.70
2019-05-20T01:25:51.015Z,6.50
2019-05-20T01:28:16.950Z,6.50
2019-05-20T01:30:42.930Z,6.63
2019-05-20T01:33:13.694Z,6.43
2019-05-20T01:35:36.883Z,6.47
2019-05-20T01:38:02.822Z,6.60
2019-05-20T01:40:29.109Z,6.70
2019-05-20T01:42:55.199Z,6.37
2019-05-20T01:45:21.182Z,5.93
2019-05-20T01:47:47.175Z,6.63
2019-05-20T01:50:13.217Z,6.90
2019-05-20T01:52:39.253Z,6.83
2019-05-20T01:55:07.416Z,7.60
2019-05-20T01:57:33.501Z,7.40
2019-05-20T01:59:59.534Z,7.20
2019-05-20T02:02:25.503Z,6.87
2019-05-20T02:04:51.606Z,6.57
2019-05-20T02:07:17.695Z,6.80
2019-05-20T02:09:43.830Z,6.80
2019-05-20T02:12:10.070Z,6.83
2019-05-20T02:14:36.117Z,6.57
2019-05-20T02:17:02.867Z,7.90
2019-05-20T02:19:29.150Z,7.47
2019-05-20T02:21:55.123Z,7.37
2019-05-20T02:24:21.078Z,7.27
2019-05-20T02:26:47.284Z,7.07
2019-05-20T02:29:13.237Z,7.13
2019-05-20T02:31:39.336Z,6.77
2019-05-20T02:34:05.393Z,7.07
2019-05-20T02:36:31.418Z,6.73
2019-05-20T02:38:58.655Z,6.90
2019-05-20T02:41:25.573Z,7.17
2019-05-20T02:43:52.660Z,7.33
2019-05-20T02:46:18.847Z,7.33
2019-05-20T02:48:44.874Z,7.07
2019-05-20T02:51:10.946Z,7.53
2019-05-20T02:53:36.879Z,7.20
2019-05-20T02:56:03.077Z,7.40
2019-05-20T02:58:29.199Z,7.43
2019-05-20T03:00:55.563Z,7.43
2019-05-20T03:03:21.601Z,6.30
2019-05-20T03:05:47.703Z,6.73
2019-05-20T03:08:13.972Z,6.87
2019-05-20T03:10:40.202Z,7.10
2019-05-20T03:13:06.289Z,7.40
2019-05-20T03:15:32.285Z,7.57
2019-05-20T03:17:58.265Z,7.70
2019-05-20T03:20:24.432Z,5.80
2019-05-20T03:22:50.511Z,6.73
2019-05-20T03:25:16.654Z,6.23
2019-05-20T03:27:42.615Z,6.00
2019-05-20T03:30:10.459Z,7.13
2019-05-20T03:32:36.647Z,7.73
2019-05-20T03:35:05.112Z,7.33
2019-05-20T03:37:31.306Z,7.13
2019-05-20T03:39:57.247Z,7.20
2019-05-20T03:42:23.214Z,5.37
2019-05-20T03:44:49.149Z,6.00
2019-05-20T03:47:15.493Z,6.13
2019-05-20T03:49:42.092Z,5.80
2019-05-20T03:52:08.168Z,6.60
2019-05-20T03:54:34.114Z,7.00
2019-05-20T03:57:01.590Z,7.30
2019-05-20T03:59:27.677Z,7.40
2019-05-20T04:01:55.007Z,7.33
2019-05-20T04:04:24.843Z,8.43
2019-05-20T04:06:49.108Z,6.77
2019-05-20T04:09:15.343Z,6.90
2019-05-20T04:11:41.301Z,6.10
2019-05-20T04:14:07.382Z,6.53
2019-05-20T04:16:33.418Z,7.10
2019-05-20T04:18:59.571Z,8.40
2019-05-20T04:21:25.960Z,9.73
2019-05-20T04:23:53.050Z,13.43
2019-05-20T04:26:19.065Z,11.07
2019-05-20T04:28:45.363Z,9.17
2019-05-20T04:31:11.446Z,7.17
2019-05-20T04:33:37.689Z,6.93
2019-05-20T04:36:03.809Z,6.80
2019-05-20T04:38:30.065Z,6.43
2019-05-20T04:40:56.055Z,6.40
2019-05-20T04:43:22.051Z,6.03
2019-05-20T04:45:49.100Z,5.80
2019-05-20T04:48:15.086Z,6.00
2019-05-20T04:50:41.132Z,5.70
2019-05-20T04:53:07.400Z,6.07
2019-05-20T04:55:33.349Z,5.70
2019-05-20T04:57:59.544Z,6.13
2019-05-20T05:00:49.253Z,6.20
2019-05-20T05:03:15.358Z,5.77
2019-05-20T05:05:41.488Z,6.00
2019-05-20T05:08:07.457Z,5.87
2019-05-20T05:10:33.504Z,5.40
2019-05-20T05:12:59.596Z,5.70
2019-05-20T05:15:25.548Z,6.28
2019-05-20T05:17:51.723Z,6.42
2019-05-20T05:20:18.764Z,6.17
2019-05-20T05:22:44.957Z,6.05
2019-05-20T05:25:11.246Z,6.70
2019-05-20T05:27:37.548Z,6.20
2019-05-20T05:30:04.642Z,6.28
2019-05-20T05:32:30.733Z,6.75
2019-05-20T05:34:56.851Z,5.53
2019-05-20T05:37:22.823Z,6.03
2019-05-20T05:39:48.769Z,6.08
2019-05-20T05:42:14.769Z,6.10
2019-05-20T05:44:40.830Z,6.05
2019-05-20T05:47:06.807Z,6.42
2019-05-20T05:49:32.964Z,6.10
2019-05-20T05:51:58.962Z,5.83
2019-05-20T05:54:26.293Z,5.53
2019-05-20T05:56:52.377Z,5.33
2019-05-20T05:59:18.338Z,6.25
2019-05-20T06:01:44.774Z,6.37
2019-05-20T06:04:10.717Z,5.85
2019-05-20T06:06:36.907Z,6.05
2019-05-20T06:09:05.259Z,5.87
2019-05-20T06:11:31.381Z,6.37
2019-05-20T06:13:59.523Z,6.87
2019-05-20T06:16:35.895Z,5.75
2019-05-20T06:18:53.364Z,6.53
2019-05-20T06:21:19.606Z,6.75
2019-05-20T06:23:45.561Z,6.40
2019-05-20T06:26:11.827Z,6.28
2019-05-20T06:28:37.844Z,6.00
2019-05-20T06:31:05.332Z,5.95
2019-05-20T06:33:31.741Z,6.35
2019-05-20T06:35:57.938Z,6.30
2019-05-20T06:38:24.518Z,7.55
2019-05-20T06:40:50.589Z,6.45
2019-05-20T06:43:16.788Z,6.97
2019-05-20T06:45:42.836Z,6.80
2019-05-20T06:48:09.007Z,7.55
2019-05-20T06:50:35.125Z,7.87
2019-05-20T06:53:01.362Z,7.50
2019-05-20T06:55:28.910Z,6.70
2019-05-20T06:57:54.996Z,7.72
2019-05-20T07:00:30.780Z,8.03
2019-05-20T07:02:57.009Z,8.60
2019-05-20T07:05:22.992Z,8.60
2019-05-20T07:07:49.083Z,7.83
2019-05-20T07:10:15.270Z,9.50
2019-05-20T07:12:41.981Z,9.23
2019-05-20T07:15:08.661Z,9.40
2019-05-20T07:17:35.398Z,9.50
2019-05-20T07:20:02.156Z,9.00
2019-05-20T07:22:28.243Z,8.00
2019-05-20T07:24:55.314Z,9.00
2019-05-20T07:27:21.499Z,8.90
2019-05-20T07:29:47.690Z,6.87
2019-05-20T07:32:13.851Z,8.50
2019-05-20T07:34:39.941Z,9.10
2019-05-20T07:37:05.987Z,7.60
2019-05-20T07:39:33.101Z,8.05
2019-05-20T07:41:59.310Z,8.73
2019-05-20T07:44:26.410Z,8.70
2019-05-20T07:46:52.974Z,8.35
2019-05-20T07:49:19.346Z,7.03
2019-05-20T07:51:46.494Z,9.03
2019-05-20T07:54:13.805Z,9.20
2019-05-20T07:56:45.000Z,8.43
2019-05-20T07:59:14.169Z,8.98
2019-05-20T08:01:40.498Z,8.23
2019-05-20T08:04:06.828Z,8.98
2019-05-20T08:06:33.159Z,8.58
2019-05-20T08:08:59.195Z,8.50
2019-05-20T08:11:25.426Z,8.33
2019-05-20T08:13:51.557Z,8.63
2019-05-20T08:16:17.758Z,8.78
2019-05-20T08:18:43.990Z,8.38
2019-05-20T08:21:10.163Z,8.20
2019-05-20T08:23:36.317Z,8.58
2019-05-20T08:26:02.539Z,8.83
2019-05-20T08:28:28.932Z,8.80
2019-05-20T08:30:55.427Z,9.00
2019-05-20T08:33:21.762Z,9.30
2019-05-20T08:35:48.807Z,9.93
2019-05-20T08:38:15.155Z,9.60
2019-05-20T08:40:41.408Z,8.93
2019-05-20T08:43:07.489Z,9.30
2019-05-20T08:45:34.053Z,8.48
2019-05-20T08:48:00.025Z,9.03
2019-05-20T08:50:25.999Z,9.55
2019-05-20T08:52:52.096Z,8.33
2019-05-20T08:55:18.450Z,8.90
2019-05-20T08:57:44.728Z,9.43
2019-05-20T09:00:23.245Z,9.20
2019-05-20T09:02:48.448Z,8.58
2019-05-20T09:05:14.805Z,9.23
2019-05-20T09:07:40.885Z,8.88
2019-05-20T09:10:07.193Z,8.73
2019-05-20T09:12:33.598Z,8.88
2019-05-20T09:14:59.585Z,8.38
2019-05-20T09:17:25.704Z,8.33
2019-05-20T09:19:51.826Z,8.05
2019-05-20T09:22:17.994Z,9.10
2019-05-20T09:24:44.174Z,8.70
2019-05-20T09:27:10.452Z,7.75
2019-05-20T09:29:38.149Z,8.95
2019-05-20T09:32:04.381Z,8.50
2019-05-20T09:34:30.759Z,8.80
2019-05-20T09:36:56.811Z,9.13
2019-05-20T09:39:23.156Z,8.65
2019-05-20T09:41:49.258Z,8.75
2019-05-20T09:44:15.271Z,8.10
2019-05-20T09:46:41.527Z,8.55
2019-05-20T09:49:07.628Z,9.40
2019-05-20T09:51:33.854Z,9.33
2019-05-20T09:54:00.013Z,8.65
2019-05-20T09:56:26.148Z,8.93
2019-05-20T09:58:52.136Z,9.03
2019-05-20T10:01:18.508Z,8.45
2019-05-20T10:03:44.547Z,8.38
2019-05-20T10:06:11.763Z,9.18
2019-05-20T10:08:44.190Z,9.30
2019-05-20T10:11:06.489Z,7.95
2019-05-20T10:13:32.521Z,8.70
2019-05-20T10:15:58.541Z,7.65
2019-05-20T10:18:36.837Z,7.70
2019-05-20T10:20:53.278Z,7.72
2019-05-20T10:23:19.376Z,7.55
2019-05-20T10:25:45.533Z,7.80
2019-05-20T10:28:11.531Z,7.95
2019-05-20T10:30:37.731Z,7.55
2019-05-20T10:33:09.842Z,7.78
2019-05-20T10:35:31.827Z,8.33
2019-05-20T10:37:57.933Z,7.53
2019-05-20T10:40:23.974Z,7.12
2019-05-20T10:42:49.946Z,7.72
2019-05-20T10:45:17.377Z,8.00
2019-05-20T10:47:43.573Z,7.67
2019-05-20T10:50:10.023Z,7.95
2019-05-20T10:52:36.249Z,8.18
2019-05-20T10:55:05.424Z,8.00
2019-05-20T10:57:31.656Z,7.70
2019-05-20T10:59:57.892Z,7.58
2019-05-20T11:02:24.721Z,7.45
2019-05-20T11:04:51.200Z,7.85
2019-05-20T11:07:17.792Z,8.03
2019-05-20T11:09:46.680Z,8.33
2019-05-20T11:12:12.799Z,7.72
2019-05-20T11:14:39.034Z,8.30
2019-05-20T11:17:05.493Z,7.72
2019-05-20T11:19:31.660Z,7.65
2019-05-20T11:21:57.834Z,7.80
2019-05-20T11:24:23.944Z,7.10
2019-05-20T11:26:50.273Z,8.13
2019-05-20T11:29:16.502Z,8.05
2019-05-20T11:31:42.731Z,10.48
2019-05-20T11:34:08.858Z,8.13
2019-05-20T11:36:35.305Z,8.05
2019-05-20T11:39:01.543Z,8.03
2019-05-20T11:41:52.151Z,7.20
2019-05-20T11:43:58.177Z,7.90
2019-05-20T11:46:24.497Z,7.60
2019-05-20T11:48:50.733Z,7.92
2019-05-20T11:51:16.944Z,7.30
2019-05-20T11:53:43.263Z,7.50
2019-05-20T11:56:11.987Z,7.35
2019-05-20T11:58:37.359Z,7.15
2019-05-20T12:01:03.500Z,7.37
2019-05-20T12:03:29.558Z,7.50
2019-05-20T12:05:55.865Z,8.15
2019-05-20T12:08:22.225Z,8.10
2019-05-20T12:10:49.781Z,7.87
2019-05-20T12:13:16.258Z,7.90
2019-05-20T12:15:42.419Z,7.70
2019-05-20T12:18:08.736Z,7.33
2019-05-20T12:20:35.064Z,7.37
2019-05-20T12:23:01.191Z,7.37
2019-05-20T12:25:27.418Z,7.67
2019-05-20T12:27:53.648Z,8.05
2019-05-20T12:30:22.954Z,8.75
2019-05-20T12:32:49.173Z,9.63
2019-05-20T12:35:15.509Z,6.78
2019-05-20T12:37:45.357Z,6.00
2019-05-20T12:40:11.904Z,6.70
2019-05-20T12:42:38.298Z,6.00
2019-05-20T12:45:07.834Z,6.33
2019-05-20T12:47:34.211Z,7.80
2019-05-20T12:50:00.522Z,8.03
2019-05-20T12:52:26.777Z,7.73
2019-05-20T12:55:06.695Z,9.07
2019-05-20T12:57:21.281Z,7.67
2019-05-20T12:59:50.379Z,7.50
2019-05-20T13:02:17.564Z,6.73
2019-05-20T13:04:44.156Z,6.67
2019-05-20T13:07:10.489Z,6.57
2019-05-20T13:09:36.613Z,6.50
2019-05-20T13:12:03.257Z,5.37
2019-05-20T13:14:29.195Z,5.73
2019-05-20T13:16:55.361Z,6.17
2019-05-20T13:19:21.339Z,6.20
2019-05-20T13:21:47.616Z,6.10
2019-05-20T13:24:13.723Z,6.57
2019-05-20T13:26:39.870Z,6.13
2019-05-20T13:29:05.822Z,6.37
2019-05-20T13:31:31.927Z,6.77
2019-05-20T13:33:57.837Z,6.90
2019-05-20T13:36:23.858Z,7.23
2019-05-20T13:38:49.863Z,7.37
2019-05-20T13:41:15.977Z,7.70
2019-05-20T13:43:42.025Z,7.77
2019-05-20T13:46:08.060Z,7.10
2019-05-20T13:48:35.315Z,7.57
2019-05-20T13:51:01.638Z,7.63
2019-05-20T13:53:27.736Z,7.83
2019-05-20T13:55:53.822Z,7.37
2019-05-20T13:58:19.799Z,7.20
2019-05-20T14:00:45.726Z,7.47
2019-05-20T14:03:12.806Z,7.03
2019-05-20T14:05:38.840Z,6.77
2019-05-20T14:08:04.847Z,7.80
2019-05-20T14:10:30.779Z,7.27
2019-05-20T14:12:56.754Z,7.83
2019-05-20T14:15:22.991Z,7.13
2019-05-20T14:17:48.987Z,7.57
2019-05-20T14:20:16.777Z,7.37
2019-05-20T14:22:42.825Z,7.13
2019-05-20T14:25:09.551Z,9.00
2019-05-20T14:27:36.975Z,9.33
2019-05-20T14:30:07.197Z,7.80
2019-05-20T14:32:33.438Z,8.00
2019-05-20T14:34:59.425Z,8.40
2019-05-20T14:37:25.587Z,8.90
2019-05-20T14:39:52.971Z,9.03
2019-05-20T14:42:19.739Z,8.50
2019-05-20T14:44:45.684Z,9.07
2019-05-20T14:47:11.624Z,9.80
2019-05-20T14:49:37.863Z,8.97
2019-05-20T14:52:03.942Z,11.03
2019-05-20T14:54:29.964Z,12.73
2019-05-20T14:56:57.131Z,13.07
2019-05-20T14:59:23.381Z,9.70
2019-05-20T15:01:49.316Z,10.60
2019-05-20T15:04:15.512Z,11.37
2019-05-20T15:06:41.746Z,11.03
2019-05-20T15:09:08.064Z,10.07
2019-05-20T15:11:38.306Z,5.20
2019-05-20T15:14:02.224Z,6.13
2019-05-20T15:16:28.180Z,6.50
2019-05-20T15:18:54.320Z,7.13
2019-05-20T15:21:20.516Z,7.40
2019-05-20T15:23:46.644Z,7.70
2019-05-20T15:26:12.696Z,7.93
2019-05-20T15:28:38.629Z,8.73
2019-05-20T15:31:05.896Z,8.30
2019-05-20T15:33:31.857Z,7.80
2019-05-20T15:35:58.031Z,7.60
2019-05-20T15:38:24.169Z,9.37
2019-05-20T15:40:50.227Z,8.13
2019-05-20T15:43:16.342Z,9.20
2019-05-20T15:45:42.764Z,8.27
2019-05-20T15:48:08.760Z,9.70
2019-05-20T15:50:35.064Z,9.27
2019-05-20T15:53:01.024Z,9.83
2019-05-20T15:55:28.236Z,9.73
2019-05-20T15:57:54.391Z,8.37
2019-05-20T16:00:20.819Z,8.03
2019-05-20T16:02:46.824Z,7.47
2019-05-20T16:05:13.050Z,7.47
2019-05-20T16:07:39.424Z,7.67
2019-05-20T16:10:05.931Z,7.90
2019-05-20T16:12:34.278Z,7.47
2019-05-20T16:15:00.226Z,7.43
2019-05-20T16:17:26.490Z,6.83
2019-05-20T16:19:52.566Z,7.37
2019-05-20T16:22:18.602Z,7.13
2019-05-20T16:24:45.418Z,7.00
2019-05-20T16:27:11.609Z,7.20
2019-05-20T16:29:37.539Z,6.37
2019-05-20T16:32:03.695Z,6.57
2019-05-20T16:34:29.842Z,5.80
2019-05-20T16:36:55.823Z,5.80
2019-05-20T16:39:22.099Z,5.70
2019-05-20T16:41:48.226Z,5.47
2019-05-20T16:44:14.280Z,4.97
2019-05-20T16:46:40.460Z,5.30
2019-05-20T16:49:06.620Z,5.03
2019-05-20T16:51:32.683Z,4.90
2019-05-20T16:53:58.733Z,4.83
2019-05-20T16:56:24.810Z,4.50
2019-05-20T16:58:50.996Z,17.67
2019-05-20T17:01:16.999Z,18.80
2019-05-20T17:03:43.204Z,10.77
2019-05-20T17:06:09.317Z,6.30
2019-05-20T17:08:35.457Z,6.63
2019-05-20T17:11:01.632Z,7.33
2019-05-20T17:13:27.726Z,6.50
2019-05-20T17:15:53.717Z,6.77
2019-05-20T17:18:19.882Z,6.37
2019-05-20T17:20:46.602Z,5.33
2019-05-20T17:23:12.771Z,5.73
2019-05-20T17:25:38.702Z,5.73
2019-05-20T17:28:04.825Z,5.37
2019-05-20T17:30:44.287Z,5.03
2019-05-20T17:32:59.293Z,5.20
2019-05-20T17:35:25.600Z,4.90
2019-05-20T17:37:55.069Z,4.93
2019-05-20T17:40:21.313Z,5.10
2019-05-20T17:42:47.499Z,4.93
2019-05-20T17:45:14.875Z,5.00
2019-05-20T17:47:41.510Z,4.90
2019-05-20T17:50:08.019Z,4.80
2019-05-20T17:52:33.989Z,4.90
2019-05-20T17:54:59.934Z,5.23
2019-05-20T17:57:26.312Z,5.20
2019-05-20T17:59:52.223Z,5.67
2019-05-20T18:02:18.375Z,5.73
2019-05-20T18:04:44.703Z,6.20
2019-05-20T18:07:10.635Z,5.30
2019-05-20T18:09:36.902Z,4.97
2019-05-20T18:12:03.149Z,5.40
2019-05-20T18:14:29.260Z,5.20
2019-05-20T18:16:55.228Z,5.43
2019-05-20T18:19:21.211Z,5.53
2019-05-20T18:21:47.334Z,5.80
2019-05-20T18:24:13.372Z,6.30
2019-05-20T18:26:39.432Z,8.40
2019-05-20T18:29:05.536Z,7.67
2019-05-20T18:31:33.081Z,7.57
2019-05-20T18:33:59.549Z,6.43
2019-05-20T18:36:25.833Z,6.50
2019-05-20T18:38:52.078Z,7.17
2019-05-20T18:41:18.865Z,7.70
2019-05-20T18:43:44.963Z,6.50
2019-05-20T18:46:11.100Z,6.40
2019-05-20T18:48:37.190Z,5.80
2019-05-20T18:51:03.326Z,6.43
2019-05-20T18:53:30.330Z,6.27
2019-05-20T18:55:56.392Z,5.33
2019-05-20T18:58:22.715Z,4.60
2019-05-20T19:00:48.811Z,4.80
2019-05-20T19:03:14.847Z,4.53
2019-05-20T19:05:40.838Z,4.20
2019-05-20T19:08:07.911Z,3.90
2019-05-20T19:10:33.963Z,3.67
2019-05-20T19:13:00.052Z,3.33
2019-05-20T19:15:26.194Z,3.00
2019-05-20T19:17:52.475Z,2.50
2019-05-20T19:20:18.580Z,2.77
2019-05-20T19:22:44.765Z,2.50
2019-05-20T19:25:10.983Z,2.57
2019-05-20T19:27:37.052Z,2.30
2019-05-20T19:30:05.484Z,2.43
2019-05-20T19:32:32.887Z,2.50
2019-05-20T19:34:59.230Z,2.60
2019-05-20T19:37:25.599Z,2.50
2019-05-20T19:39:51.723Z,2.60
2019-05-20T19:42:17.654Z,2.83
2019-05-20T19:44:43.861Z,2.67
2019-05-20T19:47:10.062Z,2.80
2019-05-20T19:49:36.242Z,2.90
2019-05-20T19:52:02.453Z,2.60
2019-05-20T19:54:28.484Z,2.60
2019-05-20T19:56:54.606Z,2.60
2019-05-20T19:59:20.734Z,2.97
2019-05-20T20:01:46.712Z,2.83
2019-05-20T20:04:12.884Z,3.10
2019-05-20T20:06:38.965Z,3.00
2019-05-20T20:09:06.666Z,3.20
2019-05-20T20:11:32.911Z,3.00
2019-05-20T20:13:59.113Z,3.07
2019-05-20T20:16:25.415Z,3.40
2019-05-20T20:18:51.584Z,3.00
2019-05-20T20:21:17.521Z,3.87
2019-05-20T20:23:43.774Z,3.70
2019-05-20T20:26:09.744Z,3.97
2019-05-20T20:28:36.032Z,3.90
2019-05-20T20:31:02.143Z,3.77
2019-05-20T20:33:28.077Z,4.50
2019-05-20T20:35:54.171Z,4.30
2019-05-20T20:38:20.193Z,4.83
2019-05-20T20:40:46.429Z,4.77
2019-05-20T20:43:12.377Z,4.90
2019-05-20T20:45:38.659Z,4.27
2019-05-20T20:48:04.739Z,4.70
2019-05-20T20:50:30.875Z,5.07
2019-05-20T20:52:56.905Z,5.27
2019-05-20T20:55:22.989Z,4.77
2019-05-20T20:57:48.949Z,5.20
2019-05-20T21:00:15.321Z,4.97
2019-05-20T21:02:52.923Z,4.57
2019-05-20T21:05:09.890Z,4.67
2019-05-20T21:07:35.835Z,4.00
2019-05-20T21:10:03.875Z,4.23
2019-05-20T21:12:30.077Z,4.60
2019-05-20T21:14:56.125Z,4.40
2019-05-20T21:17:22.273Z,5.17
2019-05-20T21:19:48.330Z,4.30
2019-05-20T21:22:14.270Z,4.17
2019-05-20T21:24:40.838Z,4.50
2019-05-20T21:27:06.785Z,3.77
2019-05-20T21:29:32.871Z,3.63
2019-05-20T21:31:58.997Z,3.93
2019-05-20T21:34:25.190Z,3.90
2019-05-20T21:36:51.363Z,3.93
2019-05-20T21:39:17.359Z,3.83
2019-05-20T21:41:43.296Z,3.70
2019-05-20T21:44:09.331Z,3.67
2019-05-20T21:46:35.314Z,3.63
2019-05-20T21:49:01.292Z,3.70
2019-05-20T21:51:27.566Z,3.27
2019-05-20T21:53:53.519Z,3.50
2019-05-20T21:56:19.463Z,3.67
2019-05-20T21:58:45.513Z,3.90
2019-05-20T22:01:11.591Z,3.80
2019-05-20T22:03:37.674Z,3.60
2019-05-20T22:06:03.902Z,4.03
2019-05-20T22:08:29.971Z,3.50
2019-05-20T22:10:56.224Z,3.77
2019-05-20T22:13:22.383Z,3.77
2019-05-20T22:15:48.375Z,3.40
2019-05-20T22:18:14.395Z,3.90
2019-05-20T22:20:40.388Z,3.67
2019-05-20T22:23:06.529Z,3.50
2019-05-20T22:25:34.336Z,3.43
2019-05-20T22:28:00.299Z,3.50
2019-05-20T22:30:26.304Z,3.50
2019-05-20T22:32:52.263Z,3.77
2019-05-20T22:35:18.494Z,3.20
2019-05-20T22:37:44.585Z,3.60
2019-05-20T22:40:10.848Z,3.40
2019-05-20T22:42:36.949Z,3.77
2019-05-20T22:45:04.397Z,3.47
2019-05-20T22:47:30.528Z,3.70
2019-05-20T22:49:56.471Z,4.03
2019-05-20T22:52:22.973Z,3.80
2019-05-20T22:54:48.906Z,4.20
2019-05-20T22:57:15.027Z,4.03
2019-05-20T22:59:41.052Z,4.60
2019-05-20T23:02:07.043Z,4.67
2019-05-20T23:04:33.069Z,4.73
2019-05-20T23:06:59.528Z,4.80
2019-05-20T23:09:25.513Z,4.93
2019-05-20T23:11:52.033Z,5.83
2019-05-20T23:14:17.976Z,5.57
2019-05-20T23:16:43.961Z,5.40
2019-05-20T23:19:10.255Z,5.80
2019-05-20T23:21:36.251Z,6.20
2019-05-20T23:24:02.277Z,6.10
2019-05-20T23:26:28.365Z,6.17
2019-05-20T23:28:54.301Z,5.60
2019-05-20T23:31:20.307Z,5.80
2019-05-20T23:33:46.261Z,5.43
2019-05-20T23:36:12.390Z,5.30
2019-05-20T23:38:38.394Z,5.30
2019-05-20T23:41:04.697Z,5.20
2019-05-20T23:43:30.984Z,4.70
2019-05-20T23:45:56.932Z,4.63
2019-05-20T23:48:22.913Z,4.53
2019-05-20T23:50:48.937Z,4.87
2019-05-20T23:53:14.879Z,4.40
2019-05-20T23:55:42.121Z,4.37
2019-05-20T23:58:08.108Z,4.53
